createdAt,value
2022-11-02T00:01:45.567Z,3.37
2022-11-02T00:04:14.032Z,5.77
2022-11-02T00:06:44.196Z,3.93
2022-11-02T00:09:12.886Z,3.87
2022-11-02T00:11:42.501Z,3.63
2022-11-02T00:19:26.424Z,7.00
2022-11-02T00:27:25.567Z,7.03
2022-11-02T00:29:54.443Z,5.10
2022-11-02T00:32:24.296Z,4.57
2022-11-02T00:34:52.751Z,7.30
2022-11-02T00:37:28.730Z,2.67
2022-11-02T00:39:57.779Z,4.70
2022-11-02T00:42:32.036Z,4.43
2022-11-02T00:45:01.299Z,7.33
2022-11-02T00:47:30.715Z,5.47
2022-11-02T00:50:00.301Z,5.30
2022-11-02T00:52:31.708Z,3.37
2022-11-02T00:55:00.064Z,4.60
2022-11-02T00:57:29.787Z,6.23
2022-11-02T00:59:58.133Z,3.33
2022-11-02T01:02:27.397Z,8.33
2022-11-02T01:04:56.824Z,5.37
2022-11-02T01:07:25.089Z,5.07
2022-11-02T01:09:53.674Z,5.30
2022-11-02T01:12:22.993Z,6.87
2022-11-02T01:14:53.764Z,5.47
2022-11-02T01:17:22.605Z,5.30
2022-11-02T01:19:52.194Z,8.83
2022-11-02T01:22:28.046Z,4.47
2022-11-02T01:24:56.923Z,5.53
2022-11-02T01:27:25.697Z,6.47
2022-11-02T01:29:55.508Z,7.07
2022-11-02T01:32:23.882Z,4.40
2022-11-02T01:34:53.058Z,3.30
2022-11-02T01:37:22.125Z,6.37
2022-11-02T01:39:51.104Z,3.47
2022-11-02T01:42:20.337Z,7.10
2022-11-02T01:44:48.787Z,4.53
2022-11-02T01:47:25.948Z,4.37
2022-11-02T01:49:58.785Z,4.30
2022-11-02T01:52:32.011Z,4.20
2022-11-02T01:55:04.826Z,6.63
2022-11-02T01:57:34.515Z,4.27
2022-11-02T02:00:08.482Z,5.00
2022-11-02T02:02:44.085Z,6.37
2022-11-02T02:05:15.925Z,3.10
2022-11-02T02:07:44.654Z,6.77
2022-11-02T02:10:13.430Z,5.53
2022-11-02T02:12:44.570Z,4.27
2022-11-02T02:15:14.574Z,4.27
2022-11-02T02:17:51.639Z,3.67
2022-11-02T02:20:35.264Z,5.07
2022-11-02T02:23:33.042Z,4.40
2022-11-02T02:26:32.557Z,4.03
2022-11-02T02:29:07.089Z,4.10
2022-11-02T02:31:39.807Z,3.57
2022-11-02T02:34:16.414Z,5.43
2022-11-02T02:36:49.971Z,6.17
2022-11-02T02:39:25.678Z,5.50
2022-11-02T02:42:00.315Z,6.27
2022-11-02T02:44:35.690Z,6.47
2022-11-02T02:47:09.879Z,4.77
2022-11-02T02:49:42.969Z,6.53
2022-11-02T02:52:11.685Z,5.13
2022-11-02T02:54:44.076Z,7.17
2022-11-02T02:57:19.880Z,3.70
2022-11-02T02:59:50.377Z,5.33
2022-11-02T03:02:22.205Z,4.30
2022-11-02T03:04:50.493Z,3.23
2022-11-02T03:07:22.040Z,5.03
2022-11-02T03:09:54.851Z,5.27
2022-11-02T03:12:30.636Z,5.40
2022-11-02T03:15:11.316Z,4.70
2022-11-02T03:17:48.026Z,3.77
2022-11-02T03:20:26.844Z,4.67
2022-11-02T03:23:08.710Z,4.37
2022-11-02T03:25:44.976Z,3.93
2022-11-02T03:28:17.701Z,3.77
2022-11-02T03:30:54.032Z,3.27
2022-11-02T03:33:30.827Z,6.03
2022-11-02T03:36:05.831Z,5.93
2022-11-02T03:38:38.250Z,7.00
2022-11-02T03:41:07.736Z,5.77
2022-11-02T03:43:37.785Z,8.67
2022-11-02T03:46:09.851Z,7.83
2022-11-02T03:48:42.172Z,4.90
2022-11-02T03:51:14.828Z,5.33
2022-11-02T03:53:49.397Z,7.10
2022-11-02T03:56:23.375Z,5.13
2022-11-02T03:58:52.913Z,4.90
2022-11-02T04:01:23.387Z,10.20
2022-11-02T04:03:51.950Z,4.67
2022-11-02T04:06:20.390Z,7.50
2022-11-02T04:08:50.406Z,6.53
2022-11-02T04:11:36.162Z,5.83
2022-11-02T04:14:21.430Z,7.40
2022-11-02T04:17:11.231Z,5.53
2022-11-02T04:19:38.327Z,5.20
2022-11-02T04:22:24.250Z,4.17
2022-11-02T04:25:09.975Z,8.03
2022-11-02T04:27:38.146Z,6.93
2022-11-02T04:30:07.222Z,5.57
2022-11-02T04:32:58.362Z,7.27
2022-11-02T04:35:26.525Z,6.93
2022-11-02T04:38:12.582Z,3.70
2022-11-02T04:40:40.819Z,3.47
2022-11-02T04:43:09.389Z,8.00
2022-11-02T04:45:38.124Z,5.90
2022-11-02T04:48:09.353Z,7.87
2022-11-02T04:50:38.041Z,9.40
2022-11-02T04:53:08.394Z,5.30
2022-11-02T04:55:37.011Z,6.90
2022-11-02T04:58:05.666Z,8.20
2022-11-02T05:00:34.317Z,4.63
2022-11-02T05:03:03.912Z,5.60
2022-11-02T05:05:35.216Z,8.70
2022-11-02T05:08:03.753Z,6.63
2022-11-02T05:10:32.336Z,6.87
2022-11-02T05:13:01.210Z,8.20
2022-11-02T05:15:29.602Z,6.13
2022-11-02T05:17:58.091Z,8.87
2022-11-02T05:20:26.503Z,7.43
2022-11-02T05:22:56.243Z,7.00
2022-11-02T05:25:24.835Z,6.63
2022-11-02T05:27:53.190Z,5.73
2022-11-02T05:30:21.658Z,7.90
2022-11-02T05:32:50.110Z,8.00
2022-11-02T05:35:18.319Z,5.30
2022-11-02T05:37:46.791Z,9.43
2022-11-02T05:40:17.013Z,7.60
2022-11-02T05:42:45.074Z,7.57
2022-11-02T05:45:13.812Z,8.47
2022-11-02T05:47:42.186Z,5.13
2022-11-02T05:50:16.404Z,9.23
2022-11-02T05:52:44.790Z,13.93
2022-11-02T05:55:18.998Z,10.80
2022-11-02T05:57:58.298Z,5.40
2022-11-02T06:00:26.853Z,9.00
2022-11-02T06:05:46.289Z,8.33
2022-11-02T06:08:22.307Z,5.30
2022-11-02T06:10:51.923Z,9.40
2022-11-02T06:13:21.790Z,5.80
2022-11-02T06:15:50.340Z,5.30
2022-11-02T06:18:19.048Z,11.03
2022-11-02T06:20:47.615Z,7.37
2022-11-02T06:23:18.441Z,10.97
2022-11-02T06:25:52.513Z,12.23
2022-11-02T06:28:23.551Z,8.50
2022-11-02T06:30:52.146Z,7.60
2022-11-02T06:33:21.336Z,5.10
2022-11-02T06:35:50.717Z,8.17
2022-11-02T06:38:19.683Z,11.13
2022-11-02T06:40:55.521Z,7.10
2022-11-02T06:43:28.545Z,9.53
2022-11-02T06:45:57.368Z,7.10
2022-11-02T06:48:35.373Z,8.17
2022-11-02T06:51:04.444Z,6.90
2022-11-02T06:53:33.158Z,6.60
2022-11-02T06:56:08.188Z,7.43
2022-11-02T06:58:38.743Z,10.30
2022-11-02T07:01:08.966Z,7.00
2022-11-02T07:03:37.799Z,7.83
2022-11-02T07:06:11.093Z,11.80
2022-11-02T07:08:42.436Z,6.83
2022-11-02T07:11:16.826Z,4.97
2022-11-02T07:13:46.833Z,5.47
2022-11-02T07:16:15.380Z,5.27
2022-11-02T07:18:43.534Z,6.93
2022-11-02T07:21:13.120Z,5.53
2022-11-02T07:23:41.561Z,12.77
2022-11-02T07:26:10.223Z,7.93
2022-11-02T07:28:38.743Z,7.20
2022-11-02T07:31:14.675Z,5.37
2022-11-02T07:33:43.294Z,7.10
2022-11-02T07:36:12.766Z,5.57
2022-11-02T07:38:41.319Z,5.77
2022-11-02T07:41:12.857Z,6.90
2022-11-02T07:43:44.121Z,6.60
2022-11-02T07:46:16.007Z,6.77
2022-11-02T07:48:45.306Z,8.90
2022-11-02T07:51:15.015Z,8.77
2022-11-02T07:53:46.021Z,6.97
2022-11-02T07:56:16.501Z,9.47
2022-11-02T07:58:48.145Z,7.70
2022-11-02T08:01:19.517Z,10.00
2022-11-02T08:03:48.571Z,5.47
2022-11-02T08:06:45.838Z,8.33
2022-11-02T08:12:11.991Z,7.53
2022-11-02T08:28:09.069Z,5.33
2022-11-02T08:30:40.286Z,7.23
2022-11-02T08:33:13.528Z,4.77
2022-11-02T08:35:46.138Z,7.83
2022-11-02T08:38:14.947Z,5.20
2022-11-02T08:40:43.744Z,4.17
2022-11-02T08:43:15.204Z,4.03
2022-11-02T08:48:39.535Z,7.90
2022-11-02T08:51:11.396Z,6.10
2022-11-02T08:53:42.365Z,6.43
2022-11-02T08:56:12.314Z,3.70
2022-11-02T08:58:43.441Z,7.93
2022-11-02T09:01:15.010Z,4.60
2022-11-02T09:03:43.729Z,4.77
2022-11-02T09:06:14.559Z,8.23
2022-11-02T09:08:43.456Z,6.57
2022-11-02T09:11:12.032Z,4.40
2022-11-02T09:16:41.369Z,4.87
2022-11-02T09:19:10.246Z,4.83
2022-11-02T09:21:42.599Z,6.47
2022-11-02T09:24:11.704Z,4.93
2022-11-02T09:35:14.307Z,7.60
2022-11-02T09:37:50.055Z,7.73
2022-11-02T09:40:25.203Z,4.53
2022-11-02T09:43:04.430Z,2.70
2022-11-02T09:45:37.073Z,4.60
2022-11-02T09:48:19.720Z,4.87
2022-11-02T09:50:59.221Z,3.50
2022-11-02T09:53:40.086Z,4.23
2022-11-02T09:56:10.309Z,4.70
2022-11-02T09:58:40.583Z,4.07
2022-11-02T10:01:35.465Z,3.60
2022-11-02T10:04:46.954Z,5.60
2022-11-02T10:07:24.881Z,4.83
2022-11-02T10:09:59.107Z,6.73
2022-11-02T10:12:39.472Z,4.53
2022-11-02T10:15:14.236Z,5.57
2022-11-02T10:18:30.016Z,3.93
2022-11-02T10:29:24.569Z,6.07
2022-11-02T10:31:57.252Z,5.80
2022-11-02T10:34:28.477Z,6.00
2022-11-02T10:37:45.698Z,6.07
2022-11-02T10:43:09.258Z,3.47
2022-11-02T10:46:25.276Z,4.60
2022-11-02T10:49:16.132Z,6.93
2022-11-02T10:54:42.972Z,5.73
2022-11-02T10:57:18.743Z,6.23
2022-11-02T10:59:56.908Z,4.67
2022-11-02T11:02:30.631Z,4.73
2022-11-02T11:05:19.277Z,4.93
2022-11-02T11:07:48.159Z,5.80
2022-11-02T11:13:03.954Z,4.00
2022-11-02T11:15:50.674Z,6.97
2022-11-02T11:21:13.968Z,3.73
2022-11-02T11:23:43.688Z,10.40
2022-11-02T11:26:32.546Z,7.73
2022-11-02T11:29:26.922Z,4.13
2022-11-02T11:31:55.826Z,3.60
2022-11-02T11:35:08.945Z,3.83
2022-11-02T11:38:04.337Z,3.80
2022-11-02T11:40:37.148Z,6.63
2022-11-02T11:43:11.268Z,5.43
2022-11-02T11:45:39.905Z,6.30
2022-11-02T11:48:24.505Z,3.17
2022-11-02T11:50:54.648Z,6.30
2022-11-02T11:54:13.417Z,3.67
2022-11-02T11:56:44.227Z,5.13
2022-11-02T11:59:24.521Z,6.97
2022-11-02T12:01:57.665Z,7.20
2022-11-02T12:04:32.998Z,4.23
2022-11-02T12:07:28.883Z,4.20
2022-11-02T12:10:06.686Z,7.27
2022-11-02T12:12:53.802Z,3.90
2022-11-02T12:19:10.766Z,2.73
2022-11-02T12:21:49.876Z,3.63
2022-11-02T12:24:46.962Z,3.97
2022-11-02T12:30:26.313Z,3.27
2022-11-02T12:33:22.566Z,4.23
2022-11-02T12:36:06.385Z,5.20
2022-11-02T12:39:08.667Z,4.37
2022-11-02T12:41:45.460Z,4.67
2022-11-02T12:44:36.327Z,3.37
2022-11-02T12:47:12.255Z,3.67
2022-11-02T12:49:50.936Z,2.33
2022-11-02T12:52:31.069Z,5.37
2022-11-02T12:55:01.389Z,3.53
2022-11-02T12:57:34.465Z,6.77
2022-11-02T13:00:07.146Z,3.53
2022-11-02T13:02:46.150Z,3.40
2022-11-02T13:05:19.017Z,5.00
2022-11-02T13:07:58.286Z,3.77
2022-11-02T13:10:31.451Z,7.10
2022-11-02T13:13:03.064Z,2.63
2022-11-02T13:15:35.662Z,2.30
2022-11-02T13:18:10.816Z,4.77
2022-11-02T13:20:44.886Z,7.43
2022-11-02T13:23:23.542Z,1.10
2022-11-02T13:25:55.529Z,3.40
2022-11-02T13:28:33.746Z,4.67
2022-11-02T13:31:06.289Z,2.93
2022-11-02T13:33:44.654Z,1.53
2022-11-02T13:36:14.351Z,3.03
2022-11-02T13:38:48.082Z,3.77
2022-11-02T13:41:29.571Z,1.70
2022-11-02T13:44:21.324Z,2.63
2022-11-02T13:47:05.832Z,1.73
2022-11-02T13:49:38.684Z,2.43
2022-11-02T13:52:15.092Z,3.73
2022-11-02T13:54:48.084Z,3.10
2022-11-02T13:57:31.833Z,2.67
2022-11-02T14:00:00.677Z,2.30
2022-11-02T14:02:32.132Z,2.70
2022-11-02T14:05:00.791Z,5.20
2022-11-02T14:07:33.675Z,2.53
2022-11-02T14:10:09.568Z,1.63
2022-11-02T14:12:45.750Z,3.17
2022-11-02T14:15:42.245Z,4.63
2022-11-02T14:18:16.629Z,2.03
2022-11-02T14:20:46.652Z,2.20
2022-11-02T14:23:38.800Z,1.60
2022-11-02T14:26:33.045Z,3.10
2022-11-02T14:29:04.528Z,4.27
2022-11-02T14:31:50.350Z,1.60
2022-11-02T14:34:41.578Z,6.00
2022-11-02T14:37:44.566Z,2.60
2022-11-02T14:40:23.751Z,3.80
2022-11-02T14:43:38.439Z,4.23
2022-11-02T14:46:19.760Z,3.20
2022-11-02T14:48:50.984Z,2.97
2022-11-02T14:51:22.193Z,4.67
2022-11-02T14:53:55.521Z,4.33
2022-11-02T14:56:25.003Z,3.97
2022-11-02T14:58:59.211Z,3.67
2022-11-02T15:01:27.439Z,3.53
2022-11-02T15:03:56.453Z,3.20
2022-11-02T15:06:27.510Z,3.43
2022-11-02T15:08:57.826Z,2.73
2022-11-02T15:11:45.579Z,2.57
2022-11-02T15:14:34.623Z,2.80
2022-11-02T15:17:03.208Z,2.73
2022-11-02T15:19:39.961Z,2.73
2022-11-02T15:22:38.461Z,6.37
2022-11-02T15:25:14.056Z,8.13
2022-11-02T15:27:44.425Z,5.27
2022-11-02T15:30:17.784Z,4.03
2022-11-02T15:32:50.157Z,3.97
2022-11-02T15:35:22.084Z,8.33
2022-11-02T15:38:19.307Z,4.55
2022-11-02T15:40:52.259Z,4.77
2022-11-02T15:43:48.547Z,9.63
2022-11-02T15:46:29.764Z,22.50
2022-11-02T15:49:09.461Z,12.53
2022-11-02T15:51:47.044Z,9.00
2022-11-02T15:54:29.738Z,17.40
2022-11-02T15:57:12.408Z,18.40
2022-11-02T15:59:55.811Z,10.40
2022-11-02T16:02:33.033Z,7.50
2022-11-02T16:05:03.369Z,17.70
2022-11-02T16:07:50.348Z,18.13
2022-11-02T16:10:27.119Z,16.60
2022-11-02T16:12:59.953Z,11.90
2022-11-02T16:15:29.281Z,13.17
2022-11-02T16:17:59.656Z,13.23
2022-11-02T16:20:29.545Z,12.87
2022-11-02T16:23:00.915Z,13.00
2022-11-02T16:25:38.571Z,18.67
2022-11-02T16:28:20.854Z,12.50
2022-11-02T16:31:17.297Z,11.70
2022-11-02T16:33:50.425Z,14.20
2022-11-02T16:36:20.524Z,17.67
2022-11-02T16:38:54.760Z,26.67
2022-11-02T16:41:23.701Z,18.83
2022-11-02T16:43:52.581Z,15.53
2022-11-02T16:46:30.851Z,16.17
2022-11-02T16:49:13.514Z,13.13
2022-11-02T16:51:42.079Z,16.77
2022-11-02T16:54:25.148Z,35.10
2022-11-02T16:56:54.463Z,17.93
2022-11-02T16:59:23.805Z,10.00
2022-11-02T17:01:52.005Z,13.53
2022-11-02T17:04:24.993Z,7.83
2022-11-02T17:06:57.097Z,10.73
2022-11-02T17:09:30.870Z,19.83
2022-11-02T17:12:01.196Z,17.20
2022-11-02T17:14:34.999Z,16.83
2022-11-02T17:17:18.134Z,14.23
2022-11-02T17:19:55.877Z,13.20
2022-11-02T17:22:26.468Z,8.73
2022-11-02T17:25:13.860Z,11.40
2022-11-02T17:27:46.280Z,8.33
2022-11-02T17:31:01.170Z,20.07
2022-11-02T17:33:33.766Z,14.07
2022-11-02T17:36:09.337Z,19.03
2022-11-02T17:38:39.556Z,14.77
2022-11-02T17:41:30.073Z,13.67
2022-11-02T17:43:57.765Z,7.70
2022-11-02T17:46:27.873Z,13.53
2022-11-02T17:48:57.983Z,6.30
2022-11-02T17:51:29.069Z,16.53
2022-11-02T17:53:58.917Z,12.30
2022-11-02T17:56:31.181Z,9.00
2022-11-02T17:59:19.291Z,15.43
2022-11-02T18:07:44.601Z,16.67
2022-11-02T18:10:25.623Z,13.73
2022-11-02T18:12:55.765Z,10.73
2022-11-02T18:15:27.541Z,5.37
2022-11-02T18:24:12.430Z,10.67
2022-11-02T18:26:58.216Z,20.47
2022-11-02T18:29:27.825Z,14.63
2022-11-02T18:31:57.031Z,14.90
2022-11-02T18:34:27.096Z,24.23
2022-11-02T18:37:00.063Z,10.63
2022-11-02T18:39:47.252Z,15.07
2022-11-02T18:42:17.961Z,17.00
2022-11-02T19:02:13.813Z,12.97
2022-11-02T19:04:45.105Z,16.00
2022-11-02T19:07:43.345Z,14.97
2022-11-02T19:10:12.165Z,11.17
2022-11-02T19:12:42.498Z,14.77
2022-11-02T19:18:25.164Z,14.00
2022-11-02T19:48:22.104Z,16.07
2022-11-02T19:55:07.986Z,9.73
2022-11-02T20:01:44.225Z,10.47
2022-11-02T20:04:14.566Z,10.87
2022-11-02T20:06:47.245Z,10.07
2022-11-02T20:15:14.496Z,16.60
2022-11-02T20:24:38.847Z,8.93
2022-11-02T20:27:09.437Z,10.00
2022-11-02T20:32:55.965Z,10.50
2022-11-02T20:41:08.385Z,10.33
2022-11-02T20:43:42.662Z,9.23
2022-11-02T20:49:21.820Z,11.63
2022-11-02T20:55:02.884Z,6.53
2022-11-02T20:57:34.756Z,9.37
2022-11-02T21:00:04.707Z,8.83
2022-11-02T21:02:44.576Z,9.77
2022-11-02T21:05:22.162Z,7.90
2022-11-02T21:07:54.787Z,9.30
2022-11-02T21:10:26.525Z,9.10
2022-11-02T21:13:14.079Z,11.60
2022-11-02T21:15:43.875Z,8.73
2022-11-02T21:18:13.741Z,9.73
2022-11-02T21:24:47.710Z,6.53
2022-11-02T21:27:20.504Z,7.83
2022-11-02T21:29:55.591Z,8.50
2022-11-02T21:32:23.870Z,6.53
2022-11-02T21:34:52.395Z,9.00
2022-11-02T21:37:20.898Z,8.67
2022-11-02T21:39:49.320Z,6.67
2022-11-02T21:42:17.463Z,7.93
2022-11-02T21:44:45.923Z,9.97
2022-11-02T21:47:15.681Z,11.93
2022-11-02T21:49:43.942Z,8.27
2022-11-02T21:52:12.425Z,10.47
2022-11-02T21:54:40.726Z,5.77
2022-11-02T21:57:09.814Z,9.27
2022-11-02T21:59:38.772Z,11.13
2022-11-02T22:02:06.252Z,8.73
2022-11-02T22:04:36.323Z,9.07
2022-11-02T22:07:05.263Z,8.07
2022-11-02T22:09:33.633Z,9.33
2022-11-02T22:12:19.250Z,6.97
2022-11-02T22:14:47.748Z,6.43
2022-11-02T22:17:22.067Z,10.63
2022-11-02T22:19:58.477Z,9.37
2022-11-02T22:22:27.703Z,8.90
2022-11-02T22:24:56.151Z,6.07
2022-11-02T22:27:24.216Z,11.30
2022-11-02T22:29:52.520Z,10.10
2022-11-02T22:32:22.579Z,6.27
2022-11-02T22:34:50.932Z,8.73
2022-11-02T22:37:38.583Z,6.43
2022-11-02T22:40:07.874Z,7.00
2022-11-02T22:42:39.775Z,7.17
2022-11-02T22:45:12.078Z,6.37
2022-11-02T22:47:40.598Z,8.03
2022-11-02T22:50:09.572Z,8.03
2022-11-02T22:52:39.588Z,8.07
2022-11-02T22:55:08.510Z,12.27
2022-11-02T22:57:36.726Z,9.50
2022-11-02T23:00:06.491Z,8.80
2022-11-02T23:02:34.620Z,8.63
2022-11-02T23:05:03.173Z,10.50
2022-11-02T23:07:31.550Z,7.63
2022-11-02T23:10:23.629Z,7.80
2022-11-02T23:12:50.739Z,10.17
2022-11-02T23:15:19.375Z,10.67
2022-11-02T23:17:49.714Z,7.27
2022-11-02T23:20:17.328Z,9.70
2022-11-02T23:23:03.702Z,8.10
2022-11-02T23:25:34.001Z,8.17
2022-11-02T23:28:20.602Z,7.13
2022-11-02T23:31:17.931Z,6.07
2022-11-02T23:33:46.390Z,10.63
2022-11-02T23:36:15.346Z,7.93
2022-11-02T23:39:02.031Z,10.80
2022-11-02T23:41:35.022Z,8.03
2022-11-02T23:44:12.924Z,10.73
2022-11-02T23:46:41.578Z,6.70
2022-11-02T23:49:10.715Z,5.13
2022-11-02T23:51:56.995Z,6.20
2022-11-02T23:54:43.181Z,12.93
2022-11-02T23:57:15.819Z,8.00
2022-11-02T23:59:45.061Z,14.60
